East Brookfield, MA (01515)

2:52 AM EDT on July 28, 2016 (GMT -0400)
East Brookfield | | Change Station

Elev 629 ft 42.23 °N, 72.07 °W | Updated 1 minute ago

Clear
Clear
63.0 °F
Feels Like 63.0 °F
N
1.2
Wind Variable Wind from SW
Gusts 3.1 mph

Today
High -- | Low -- °F
--% Chance of Precip.
Yesterday
High -- | Low -- °F
Precip. -- in
Pressure 29.92 in
Visibility 10.0 miles
Clouds Clear
Dew Point 60 °F
Humidity 91%
Rainfall 0.00 in
Snow Depth Not available.
5:37 AM 8:11 PM
Waning Crescent, 35% visible
METAR KORH 280554Z AUTO 25008KT 10SM CLR 21/16 A2994 RMK AO2 SLP131 T02110156 10272 20200 53000
Pressure 29.92 in
Visibility 10.0 miles
Clouds Clear
Dew Point 60 °F
Humidity 91%
Rainfall 0.00 in
Snow Depth Not available.
5:37 AM 8:11 PM
Waning Crescent, 35% visible
METAR KORH 280554Z AUTO 25008KT 10SM CLR 21/16 A2994 RMK AO2 SLP131 T02110156 10272 20200 53000

10-Day Weather Forecast

Almanac

Astronomy

Jul. 28, 2016 Rise Set
Actual Time
Civil Twilight
Nautical Twilight
Astronomical Twilight
Moon
Length of Visible Light
Length of Day
Tomorrow will be .
, % of the Moon is Illuminated

Today's Extremes

State Highs State Lows

Community

WunderPhotos

Upload Photos

1,928,064 photos uploaded!

WunderBlog® & News

Nearby

Air Quality

  Air Quality AQ Index Pollutant
Not available.

Snow Depth

Station Depth Elevation

Earthquake Activity

City Distance Mag. Time & Date
Minimum magnitude displayed is 2.5.

Coastal Water Temperatures

Place Temperature

Stations

Nearby Weather Stations

Station Location Temp. Windchill Dew Point Humidity Wind Precip. Elev Updated Type
                   

Watches & Warnings

There are currently no watches in effect.